createdAt,value
2018-03-30T00:02:04.693Z,7.10
2018-03-30T00:04:32.207Z,7.53
2018-03-30T00:07:09.956Z,7.50
2018-03-30T00:09:49.326Z,7.10
2018-03-30T00:12:16.904Z,6.50
2018-03-30T00:14:44.395Z,6.90
2018-03-30T00:17:11.967Z,7.70
2018-03-30T00:19:39.555Z,6.73
2018-03-30T00:22:07.842Z,7.03
2018-03-30T00:24:36.216Z,7.67
2018-03-30T00:27:03.757Z,7.43
2018-03-30T00:29:31.276Z,6.77
2018-03-30T00:31:58.787Z,7.60
2018-03-30T00:34:26.326Z,6.90
2018-03-30T00:36:53.864Z,7.03
2018-03-30T00:39:21.418Z,6.93
2018-03-30T00:41:48.996Z,7.00
2018-03-30T00:44:16.496Z,7.07
2018-03-30T00:46:43.994Z,7.07
2018-03-30T00:49:12.278Z,7.20
2018-03-30T00:51:40.520Z,5.93
2018-03-30T00:54:08.030Z,6.47
2018-03-30T00:56:35.563Z,6.37
2018-03-30T00:59:03.120Z,6.40
2018-03-30T01:01:30.642Z,6.17
2018-03-30T01:03:58.166Z,6.20
2018-03-30T01:06:25.695Z,6.37
2018-03-30T01:08:53.197Z,6.43
2018-03-30T01:11:20.721Z,6.50
2018-03-30T01:13:48.238Z,6.60
2018-03-30T01:16:15.827Z,6.50
2018-03-30T01:18:43.402Z,6.40
2018-03-30T01:21:10.941Z,6.83
2018-03-30T01:23:38.491Z,6.50
2018-03-30T01:26:06.899Z,6.20
2018-03-30T01:28:35.196Z,6.40
2018-03-30T01:31:03.526Z,6.30
2018-03-30T01:33:31.026Z,5.23
2018-03-30T01:35:59.390Z,6.03
2018-03-30T01:38:26.946Z,6.10
2018-03-30T01:40:54.624Z,5.63
2018-03-30T01:43:22.887Z,5.70
2018-03-30T01:45:50.429Z,5.90
2018-03-30T01:48:18.739Z,5.50
2018-03-30T01:50:46.411Z,5.63
2018-03-30T01:53:13.974Z,5.30
2018-03-30T01:55:41.515Z,5.40
2018-03-30T01:58:09.011Z,5.60
2018-03-30T02:00:37.327Z,5.37
2018-03-30T02:03:04.818Z,5.70
2018-03-30T02:05:32.360Z,4.90
2018-03-30T02:08:00.641Z,5.10
2018-03-30T02:10:28.925Z,6.03
2018-03-30T02:12:56.464Z,5.63
2018-03-30T02:15:23.974Z,4.80
2018-03-30T02:17:52.252Z,5.47
2018-03-30T02:20:20.531Z,5.17
2018-03-30T02:22:48.056Z,4.90
2018-03-30T02:25:15.553Z,5.40
2018-03-30T02:27:43.101Z,4.60
2018-03-30T02:30:10.648Z,4.80
2018-03-30T02:32:38.177Z,4.77
2018-03-30T02:35:05.698Z,4.53
2018-03-30T02:37:33.210Z,4.40
2018-03-30T02:40:00.768Z,5.00
2018-03-30T02:42:28.257Z,4.47
2018-03-30T02:44:55.782Z,4.53
2018-03-30T02:47:23.274Z,4.50
2018-03-30T02:49:50.895Z,4.67
2018-03-30T02:52:18.443Z,4.03
2018-03-30T02:54:46.012Z,4.67
2018-03-30T02:57:13.573Z,4.90
2018-03-30T02:59:41.078Z,4.80
2018-03-30T03:02:08.613Z,4.70
2018-03-30T03:04:36.135Z,4.60
2018-03-30T03:07:03.653Z,4.87
2018-03-30T03:09:31.154Z,4.43
2018-03-30T03:11:58.726Z,4.60
2018-03-30T03:14:26.268Z,4.60
2018-03-30T03:16:53.883Z,4.30
2018-03-30T03:19:22.168Z,4.27
2018-03-30T03:21:50.429Z,5.10
2018-03-30T03:24:17.985Z,4.90
2018-03-30T03:26:45.509Z,4.37
2018-03-30T03:29:13.886Z,5.10
2018-03-30T03:31:41.503Z,4.40
2018-03-30T03:34:09.014Z,5.10
2018-03-30T03:36:36.511Z,4.60
2018-03-30T03:39:04.013Z,4.73
2018-03-30T03:41:31.506Z,4.97
2018-03-30T03:43:58.999Z,5.00
2018-03-30T03:46:26.488Z,4.57
2018-03-30T03:48:53.980Z,4.63
2018-03-30T03:51:21.504Z,4.30
2018-03-30T03:53:49.034Z,4.70
2018-03-30T03:56:16.535Z,5.00
2018-03-30T03:58:44.011Z,4.57
2018-03-30T04:01:11.503Z,4.43
2018-03-30T04:03:38.983Z,4.50
2018-03-30T04:06:06.496Z,4.80
2018-03-30T04:08:33.991Z,4.37
2018-03-30T04:11:01.487Z,4.73
2018-03-30T04:13:28.996Z,5.30
2018-03-30T04:15:56.495Z,4.77
2018-03-30T04:18:24.007Z,4.63
2018-03-30T04:20:51.538Z,4.80
2018-03-30T04:23:19.042Z,4.50
2018-03-30T04:25:46.559Z,4.50
2018-03-30T04:28:14.054Z,4.50
2018-03-30T04:30:41.607Z,4.47
2018-03-30T04:33:09.155Z,4.73
2018-03-30T04:35:37.411Z,4.53
2018-03-30T04:38:04.911Z,5.20
2018-03-30T04:40:33.216Z,4.40
2018-03-30T04:43:00.691Z,4.70
2018-03-30T04:45:28.183Z,4.93
2018-03-30T04:47:55.698Z,5.10
2018-03-30T04:50:23.954Z,5.03
2018-03-30T04:52:51.439Z,5.03
2018-03-30T04:55:19.045Z,4.67
2018-03-30T04:57:46.515Z,5.10
2018-03-30T05:00:14.772Z,5.27
2018-03-30T05:05:16.130Z,5.00
2018-03-30T05:07:43.637Z,4.87
2018-03-30T05:10:11.131Z,4.80
2018-03-30T05:12:39.391Z,5.40
2018-03-30T05:15:06.886Z,4.77
2018-03-30T05:17:35.138Z,5.07
2018-03-30T05:20:02.651Z,5.23
2018-03-30T05:22:30.919Z,5.03
2018-03-30T05:24:59.183Z,4.97
2018-03-30T05:27:26.716Z,4.70
2018-03-30T05:29:54.207Z,4.70
2018-03-30T05:32:21.704Z,5.60
2018-03-30T05:34:49.234Z,5.73
2018-03-30T05:37:16.750Z,5.30
2018-03-30T05:39:44.278Z,5.30
2018-03-30T05:42:11.820Z,5.20
2018-03-30T05:44:39.264Z,4.90
2018-03-30T05:47:06.768Z,5.23
2018-03-30T05:49:34.264Z,5.47
2018-03-30T05:52:01.776Z,5.33
2018-03-30T05:54:29.295Z,5.37
2018-03-30T05:56:56.815Z,5.97
2018-03-30T05:59:24.300Z,5.60
2018-03-30T06:01:52.559Z,5.30
2018-03-30T06:04:20.048Z,6.10
2018-03-30T06:06:47.534Z,4.83
2018-03-30T06:09:15.788Z,5.33
2018-03-30T06:11:43.280Z,5.90
2018-03-30T06:14:10.778Z,5.87
2018-03-30T06:16:38.295Z,5.93
2018-03-30T06:19:05.846Z,5.03
2018-03-30T06:21:33.327Z,6.27
2018-03-30T06:24:00.909Z,4.83
2018-03-30T06:26:28.402Z,5.67
2018-03-30T06:28:55.886Z,5.97
2018-03-30T06:31:24.163Z,5.47
2018-03-30T06:33:51.652Z,5.77
2018-03-30T06:36:19.928Z,5.60
2018-03-30T06:38:47.401Z,5.70
2018-03-30T06:41:14.915Z,6.10
2018-03-30T06:43:42.413Z,5.33
2018-03-30T06:46:09.900Z,6.10
2018-03-30T06:48:37.443Z,5.93
2018-03-30T06:51:04.948Z,5.43
2018-03-30T06:53:32.464Z,5.80
2018-03-30T06:55:59.992Z,5.60
2018-03-30T06:58:28.266Z,5.33
2018-03-30T07:00:55.798Z,6.63
2018-03-30T07:03:23.294Z,5.83
2018-03-30T07:05:50.814Z,6.13
2018-03-30T07:08:18.307Z,6.40
2018-03-30T07:10:45.803Z,6.83
2018-03-30T07:13:13.291Z,6.97
2018-03-30T07:15:40.790Z,6.00
2018-03-30T07:18:09.064Z,7.03
2018-03-30T07:20:36.555Z,6.37
2018-03-30T07:23:04.789Z,6.30
2018-03-30T07:25:32.281Z,5.97
2018-03-30T07:27:59.779Z,6.70
2018-03-30T07:30:28.043Z,6.43
2018-03-30T07:32:55.574Z,6.47
2018-03-30T07:35:23.074Z,6.30
2018-03-30T07:37:50.587Z,6.33
2018-03-30T07:40:18.106Z,6.03
2018-03-30T07:42:45.596Z,6.50
2018-03-30T07:45:13.077Z,6.50
2018-03-30T07:47:40.610Z,6.63
2018-03-30T07:50:08.064Z,6.10
2018-03-30T07:52:35.643Z,6.00
2018-03-30T07:55:03.147Z,5.90
2018-03-30T07:57:30.756Z,6.70
2018-03-30T07:59:59.027Z,5.97
2018-03-30T08:02:27.282Z,6.10
2018-03-30T08:04:54.806Z,6.00
2018-03-30T08:07:23.084Z,5.77
2018-03-30T08:09:51.360Z,6.27
2018-03-30T08:12:19.626Z,5.70
2018-03-30T08:14:47.110Z,6.00
2018-03-30T08:17:14.625Z,5.83
2018-03-30T08:19:42.874Z,5.70
2018-03-30T08:22:10.396Z,6.13
2018-03-30T08:24:37.867Z,6.47
2018-03-30T08:27:05.387Z,5.37
2018-03-30T08:29:32.915Z,6.10
2018-03-30T08:32:00.426Z,6.27
2018-03-30T08:34:28.699Z,6.60
2018-03-30T08:36:56.254Z,5.77
2018-03-30T08:39:23.815Z,6.30
2018-03-30T08:41:51.387Z,6.20
2018-03-30T08:44:19.628Z,6.27
2018-03-30T08:46:47.900Z,6.20
2018-03-30T08:49:15.467Z,6.27
2018-03-30T08:51:42.916Z,6.57
2018-03-30T08:54:10.412Z,6.27
2018-03-30T08:56:37.909Z,5.93
2018-03-30T08:59:06.178Z,6.10
2018-03-30T09:01:33.723Z,5.63
2018-03-30T09:04:01.215Z,5.73
2018-03-30T09:06:28.711Z,6.03
2018-03-30T09:08:56.980Z,6.13
2018-03-30T09:11:24.451Z,6.00
2018-03-30T09:13:52.001Z,5.80
2018-03-30T09:16:19.485Z,5.90
2018-03-30T09:18:47.040Z,5.90
2018-03-30T09:21:14.526Z,7.03
2018-03-30T09:23:42.058Z,6.40
2018-03-30T09:26:09.542Z,6.33
2018-03-30T09:28:37.051Z,6.60
2018-03-30T09:31:04.539Z,7.23
2018-03-30T09:33:32.791Z,7.90
2018-03-30T09:36:00.267Z,7.80
2018-03-30T09:38:27.759Z,7.20
2018-03-30T09:40:55.315Z,7.13
2018-03-30T09:43:22.805Z,7.17
2018-03-30T09:45:51.055Z,7.30
2018-03-30T09:48:19.336Z,7.27
2018-03-30T09:50:46.808Z,8.10
2018-03-30T09:53:14.307Z,7.80
2018-03-30T09:55:41.798Z,7.60
2018-03-30T09:58:10.079Z,8.00
2018-03-30T10:00:38.417Z,8.47
2018-03-30T10:03:06.800Z,7.83
2018-03-30T10:05:34.307Z,7.70
2018-03-30T10:08:01.811Z,7.03
2018-03-30T10:10:29.352Z,7.30
2018-03-30T10:12:56.830Z,7.60
2018-03-30T10:15:24.387Z,7.20
2018-03-30T10:17:51.869Z,6.87
2018-03-30T10:20:19.348Z,6.20
2018-03-30T10:22:47.623Z,6.93
2018-03-30T10:25:15.937Z,6.63
2018-03-30T10:27:44.211Z,7.57
2018-03-30T10:30:11.703Z,7.43
2018-03-30T10:32:39.963Z,6.67
2018-03-30T10:35:07.442Z,6.60
2018-03-30T10:37:34.927Z,6.90
2018-03-30T10:40:03.192Z,6.57
2018-03-30T10:42:30.684Z,6.93
2018-03-30T10:44:59.003Z,7.00
2018-03-30T10:47:26.491Z,7.30
2018-03-30T10:49:53.992Z,6.73
2018-03-30T10:52:21.474Z,6.43
2018-03-30T10:54:49.731Z,6.60
2018-03-30T10:57:17.256Z,6.40
2018-03-30T10:59:46.139Z,6.50
2018-03-30T11:02:14.418Z,6.30
2018-03-30T11:04:41.912Z,6.03
2018-03-30T11:07:10.176Z,6.50
2018-03-30T11:09:38.424Z,5.93
2018-03-30T11:12:05.910Z,5.83
2018-03-30T11:14:33.386Z,6.13
2018-03-30T11:17:01.724Z,6.03
2018-03-30T11:19:29.216Z,6.20
2018-03-30T11:21:56.719Z,5.60
2018-03-30T11:24:24.252Z,5.57
2018-03-30T11:26:51.765Z,5.60
2018-03-30T11:29:19.276Z,5.50
2018-03-30T11:31:46.797Z,5.17
2018-03-30T11:34:14.291Z,4.60
2018-03-30T11:36:42.553Z,4.20
2018-03-30T11:39:10.072Z,4.63
2018-03-30T11:41:37.635Z,4.23
2018-03-30T11:44:05.895Z,4.27
2018-03-30T11:46:33.464Z,4.23
2018-03-30T11:49:00.940Z,3.73
2018-03-30T11:51:28.426Z,4.20
2018-03-30T11:53:55.924Z,3.60
2018-03-30T11:56:23.468Z,3.70
2018-03-30T11:58:51.779Z,3.40
2018-03-30T12:01:19.355Z,2.90
2018-03-30T12:03:46.861Z,3.00
2018-03-30T12:06:14.346Z,2.87
2018-03-30T12:08:41.834Z,2.80
2018-03-30T12:11:09.336Z,2.50
2018-03-30T12:13:36.838Z,2.40
2018-03-30T12:16:04.320Z,2.90
2018-03-30T12:18:31.838Z,2.70
2018-03-30T12:21:00.199Z,3.00
2018-03-30T12:23:27.698Z,2.80
2018-03-30T12:25:55.971Z,2.50
2018-03-30T12:28:23.485Z,2.80
2018-03-30T12:30:50.963Z,2.40
2018-03-30T12:33:18.468Z,2.63
2018-03-30T12:35:45.931Z,2.60
2018-03-30T12:38:13.431Z,2.63
2018-03-30T12:40:41.694Z,2.60
2018-03-30T12:43:09.238Z,2.60
2018-03-30T12:45:36.748Z,2.33
2018-03-30T12:48:04.304Z,2.20
2018-03-30T12:50:31.882Z,2.50
2018-03-30T12:53:00.168Z,2.30
2018-03-30T12:55:28.430Z,2.23
2018-03-30T12:57:55.922Z,2.10
2018-03-30T13:00:24.214Z,2.30
2018-03-30T13:02:52.908Z,2.10
2018-03-30T13:05:20.418Z,2.20
2018-03-30T13:07:48.689Z,2.00
2018-03-30T13:10:16.231Z,2.13
2018-03-30T13:12:44.514Z,1.73
2018-03-30T13:15:12.003Z,2.30
2018-03-30T13:17:39.516Z,1.90
2018-03-30T13:20:07.811Z,1.70
2018-03-30T13:22:36.068Z,2.17
2018-03-30T13:25:03.555Z,1.67
2018-03-30T13:27:31.842Z,2.20
2018-03-30T13:30:00.120Z,2.20
2018-03-30T13:32:27.608Z,2.07
2018-03-30T13:34:55.959Z,1.83
2018-03-30T13:37:23.490Z,1.90
2018-03-30T13:39:51.000Z,1.80
2018-03-30T13:42:18.482Z,2.10
2018-03-30T13:44:46.021Z,2.10
2018-03-30T13:47:13.508Z,2.20
2018-03-30T13:49:41.817Z,2.43
2018-03-30T13:55:40.062Z,2.97
2018-03-30T13:58:21.132Z,2.47
2018-03-30T14:01:08.779Z,2.70
2018-03-30T14:03:50.263Z,2.93
2018-03-30T14:06:32.494Z,3.20
2018-03-30T14:09:06.306Z,2.93
2018-03-30T14:11:40.322Z,2.90
2018-03-30T14:14:07.777Z,3.07
2018-03-30T14:16:39.613Z,3.03
2018-03-30T14:19:16.266Z,3.53
2018-03-30T14:21:47.308Z,3.57
2018-03-30T14:24:17.139Z,3.80
2018-03-30T14:26:51.989Z,4.33
2018-03-30T14:29:24.074Z,4.70
2018-03-30T14:31:55.953Z,4.50
2018-03-30T14:34:27.838Z,4.63
2018-03-30T14:50:32.067Z,4.73
2018-03-30T14:53:02.998Z,4.53
2018-03-30T14:55:31.232Z,4.70
2018-03-30T15:00:55.958Z,4.20
2018-03-30T15:03:24.798Z,4.30
2018-03-30T15:06:01.473Z,4.00
2018-03-30T15:08:33.376Z,4.53
2018-03-30T15:11:06.678Z,4.77
2018-03-30T15:13:44.573Z,4.37
2018-03-30T15:16:27.500Z,4.30
2018-03-30T15:18:54.975Z,4.50
2018-03-30T15:21:25.822Z,4.50
2018-03-30T15:23:54.218Z,4.40
2018-03-30T15:26:24.959Z,4.63
2018-03-30T15:29:06.012Z,4.80
2018-03-30T15:31:39.998Z,4.80
2018-03-30T15:34:20.244Z,4.60
2018-03-30T15:36:53.718Z,4.23
2018-03-30T15:39:21.210Z,5.00
2018-03-30T15:41:50.189Z,4.87
2018-03-30T15:44:17.681Z,4.17
2018-03-30T15:46:56.007Z,4.90
2018-03-30T15:49:23.488Z,4.87
2018-03-30T15:51:59.959Z,4.83
2018-03-30T15:54:26.954Z,4.33
2018-03-30T15:56:58.030Z,4.50
2018-03-30T15:59:25.511Z,5.30
2018-03-30T16:01:53.047Z,5.30
2018-03-30T16:04:21.327Z,5.20
2018-03-30T16:06:48.943Z,5.30
2018-03-30T16:09:20.844Z,4.73
2018-03-30T16:11:48.368Z,5.20
2018-03-30T16:14:16.651Z,5.30
2018-03-30T16:16:44.939Z,5.23
2018-03-30T16:19:12.709Z,5.50
2018-03-30T16:21:40.478Z,5.07
2018-03-30T16:24:07.530Z,5.50
2018-03-30T16:26:34.570Z,5.30
2018-03-30T16:29:01.606Z,5.43
2018-03-30T16:31:28.621Z,5.47
2018-03-30T16:33:56.460Z,5.47
2018-03-30T16:36:23.456Z,5.57
2018-03-30T16:38:50.516Z,5.30
2018-03-30T16:41:17.542Z,5.40
2018-03-30T16:43:44.531Z,5.50
2018-03-30T16:46:11.526Z,5.87
2018-03-30T16:48:38.575Z,5.67
2018-03-30T16:51:06.339Z,5.20
2018-03-30T16:53:33.350Z,5.63
2018-03-30T16:56:00.352Z,5.60
2018-03-30T16:58:28.192Z,5.87
2018-03-30T17:00:55.188Z,5.03
2018-03-30T17:03:22.199Z,5.53
2018-03-30T17:05:49.266Z,5.67
2018-03-30T17:08:16.260Z,5.63
2018-03-30T17:10:43.263Z,5.93
2018-03-30T17:13:10.285Z,5.70
2018-03-30T17:15:38.262Z,5.63
2018-03-30T17:18:06.049Z,6.20
2018-03-30T17:20:33.987Z,5.60
2018-03-30T17:23:00.988Z,5.47
2018-03-30T17:25:28.747Z,5.50
2018-03-30T17:27:55.809Z,5.27
2018-03-30T17:30:22.786Z,5.80
2018-03-30T17:32:50.590Z,5.77
2018-03-30T17:35:17.568Z,5.70
2018-03-30T17:37:44.591Z,5.60
2018-03-30T17:40:12.377Z,5.60
2018-03-30T17:42:39.387Z,6.20
2018-03-30T17:45:06.371Z,5.60
2018-03-30T17:47:34.197Z,5.63
2018-03-30T17:50:01.245Z,6.00
2018-03-30T17:52:28.250Z,5.90
2018-03-30T17:54:55.287Z,5.93
2018-03-30T17:57:22.332Z,5.23
2018-03-30T17:59:49.355Z,5.83
2018-03-30T18:02:17.128Z,5.90
2018-03-30T18:04:44.896Z,5.07
2018-03-30T18:07:12.713Z,5.43
2018-03-30T18:09:39.808Z,5.73
2018-03-30T18:12:06.810Z,5.70
2018-03-30T18:14:34.593Z,5.83
2018-03-30T18:17:01.580Z,5.57
2018-03-30T18:19:28.754Z,5.47
2018-03-30T18:21:55.760Z,5.50
2018-03-30T18:24:23.582Z,5.50
2018-03-30T18:26:50.617Z,6.00
2018-03-30T18:29:17.673Z,5.90
2018-03-30T18:31:45.475Z,5.50
2018-03-30T18:34:12.467Z,5.90
2018-03-30T18:36:39.490Z,5.60
2018-03-30T18:39:06.488Z,5.73
2018-03-30T18:41:34.271Z,6.33
2018-03-30T18:44:01.264Z,5.67
2018-03-30T18:46:28.275Z,5.90
2018-03-30T18:48:55.332Z,5.73
2018-03-30T18:51:25.449Z,6.27
2018-03-30T18:53:52.455Z,5.60
2018-03-30T18:56:20.222Z,6.03
2018-03-30T18:58:47.210Z,5.90
2018-03-30T19:01:14.963Z,5.97
2018-03-30T19:03:42.800Z,5.37
2018-03-30T19:06:09.792Z,6.87
2018-03-30T19:08:37.828Z,5.73
2018-03-30T19:11:04.913Z,5.77
2018-03-30T19:13:31.895Z,5.40
2018-03-30T19:15:59.664Z,6.20
2018-03-30T19:18:26.687Z,6.40
2018-03-30T19:20:53.705Z,6.23
2018-03-30T19:23:21.502Z,5.80
2018-03-30T19:25:48.519Z,5.63
2018-03-30T19:28:16.300Z,6.00
2018-03-30T19:30:43.297Z,5.80
2018-03-30T19:33:10.299Z,5.67
2018-03-30T19:35:38.310Z,5.93
2018-03-30T19:38:05.310Z,6.87
2018-03-30T19:40:32.318Z,6.03
2018-03-30T19:42:59.366Z,5.97
2018-03-30T19:45:26.373Z,6.47
2018-03-30T19:47:53.366Z,5.83
2018-03-30T19:50:20.345Z,6.00
2018-03-30T19:52:47.339Z,6.20
2018-03-30T19:55:15.097Z,6.33
2018-03-30T19:57:42.132Z,6.43
2018-03-30T20:00:09.902Z,6.87
2018-03-30T20:02:37.159Z,5.90
2018-03-30T20:05:04.154Z,6.07
2018-03-30T20:07:31.454Z,6.50
2018-03-30T20:09:58.550Z,6.50
2018-03-30T20:12:25.640Z,6.00
2018-03-30T20:14:52.650Z,6.60
2018-03-30T20:17:19.659Z,6.60
2018-03-30T20:19:46.696Z,6.63
2018-03-30T20:22:14.533Z,6.50
2018-03-30T20:24:42.284Z,6.23
2018-03-30T20:27:10.034Z,6.27
2018-03-30T20:29:37.008Z,6.27
2018-03-30T20:32:03.999Z,6.60
2018-03-30T20:34:31.040Z,6.83
2018-03-30T20:36:58.794Z,6.40
2018-03-30T20:39:25.786Z,5.90
2018-03-30T20:41:52.831Z,6.70
2018-03-30T20:44:20.598Z,6.53
2018-03-30T20:46:47.827Z,6.67
2018-03-30T20:49:14.885Z,6.67
2018-03-30T20:54:15.229Z,6.40
2018-03-30T20:56:42.245Z,5.83
2018-03-30T20:59:09.276Z,6.63
2018-03-30T21:01:36.304Z,5.53
2018-03-30T21:04:03.453Z,6.60
2018-03-30T21:06:30.561Z,5.73
2018-03-30T21:08:57.627Z,6.10
2018-03-30T21:11:24.651Z,5.97
2018-03-30T21:13:51.955Z,6.10
2018-03-30T21:16:19.031Z,5.93
2018-03-30T21:18:46.055Z,5.90
2018-03-30T21:21:13.086Z,6.47
2018-03-30T21:23:40.119Z,6.37
2018-03-30T21:26:08.016Z,5.90
2018-03-30T21:28:35.864Z,6.27
2018-03-30T21:31:02.834Z,6.00
2018-03-30T21:33:29.894Z,5.97
2018-03-30T21:35:57.660Z,5.80
2018-03-30T21:38:24.705Z,5.53
2018-03-30T21:40:51.716Z,5.57
2018-03-30T21:43:19.466Z,5.50
2018-03-30T21:45:46.520Z,6.07
2018-03-30T21:48:14.311Z,4.97
2018-03-30T21:50:41.326Z,5.07
2018-03-30T21:53:08.303Z,5.57
2018-03-30T21:55:36.063Z,6.00
2018-03-30T21:58:03.256Z,5.37
2018-03-30T22:00:30.418Z,6.33
2018-03-30T22:02:57.431Z,5.57
2018-03-30T22:05:24.437Z,5.23
2018-03-30T22:07:51.443Z,5.67
2018-03-30T22:10:18.438Z,5.60
2018-03-30T22:12:45.440Z,5.90
2018-03-30T22:15:13.216Z,5.47
2018-03-30T22:17:40.262Z,5.43
2018-03-30T22:20:08.029Z,5.80
2018-03-30T22:22:35.056Z,5.50
2018-03-30T22:25:02.068Z,5.60
2018-03-30T22:27:29.865Z,5.70
2018-03-30T22:29:56.854Z,5.47
2018-03-30T22:32:23.851Z,5.20
2018-03-30T22:34:51.619Z,5.30
2018-03-30T22:37:18.611Z,5.87
2018-03-30T22:39:45.611Z,5.80
2018-03-30T22:42:12.606Z,5.60
2018-03-30T22:44:39.595Z,5.60
2018-03-30T22:47:06.607Z,6.10
2018-03-30T22:49:33.614Z,5.83
2018-03-30T22:52:00.615Z,5.03
2018-03-30T22:54:27.593Z,5.20
2018-03-30T22:56:54.591Z,5.90
2018-03-30T22:59:21.612Z,5.90
2018-03-30T23:01:49.400Z,5.47
2018-03-30T23:04:17.142Z,4.90
2018-03-30T23:06:44.166Z,6.20
2018-03-30T23:09:11.159Z,5.63
2018-03-30T23:11:38.234Z,5.53
2018-03-30T23:14:05.246Z,5.50
2018-03-30T23:16:32.344Z,5.70
2018-03-30T23:18:59.351Z,5.80
2018-03-30T23:21:26.366Z,5.83
2018-03-30T23:23:53.343Z,6.03
2018-03-30T23:26:20.391Z,5.23
2018-03-30T23:28:47.432Z,5.43
2018-03-30T23:31:14.482Z,5.30
2018-03-30T23:33:41.479Z,5.50
2018-03-30T23:36:08.483Z,5.13
2018-03-30T23:38:35.506Z,5.30
2018-03-30T23:41:03.263Z,5.37
2018-03-30T23:43:30.290Z,5.57
2018-03-30T23:45:57.307Z,5.37
2018-03-30T23:48:25.071Z,5.80
2018-03-30T23:50:52.062Z,4.97
2018-03-30T23:53:19.078Z,5.40
2018-03-30T23:55:46.083Z,5.33
2018-03-30T23:58:13.091Z,4.70
